createdAt,value
2023-01-01T00:01:47.586Z,100020.00
2023-01-01T00:05:50.704Z,100029.13
2023-01-01T00:10:21.174Z,100017.72
2023-01-01T00:14:24.259Z,100024.13
2023-01-01T00:18:27.585Z,100040.34
2023-01-01T00:26:54.974Z,100036.34
2023-01-01T00:30:58.046Z,100041.31
2023-01-01T00:35:01.084Z,100034.47
2023-01-01T00:39:05.178Z,100046.66
2023-01-01T00:43:09.563Z,100041.53
2023-01-01T00:47:12.611Z,100046.09
2023-01-01T00:51:15.677Z,100034.97
2023-01-01T00:55:19.147Z,100038.25
2023-01-01T00:59:28.479Z,100025.78
2023-01-01T01:03:32.197Z,100027.41
2023-01-01T01:07:37.599Z,100035.38
2023-01-01T01:11:40.666Z,100045.78
2023-01-01T01:15:45.260Z,100051.94
2023-01-01T01:19:48.288Z,100028.72
2023-01-01T01:23:52.353Z,100035.31
2023-01-01T01:27:55.359Z,100054.59
2023-01-01T01:32:00.073Z,100065.06
2023-01-01T01:36:03.323Z,100069.94
2023-01-01T01:40:07.844Z,100078.44
2023-01-01T01:44:43.961Z,100074.81
2023-01-01T01:48:51.124Z,100075.53
2023-01-01T01:53:03.425Z,100071.34
2023-01-01T01:57:10.488Z,100086.13
2023-01-01T02:01:14.591Z,100071.75
2023-01-01T02:05:20.460Z,100095.28
2023-01-01T02:09:24.270Z,100077.19
2023-01-01T02:13:27.581Z,100080.28
2023-01-01T02:17:39.136Z,100085.41
2023-01-01T02:21:57.750Z,100087.31
2023-01-01T02:26:38.667Z,100087.38
2023-01-01T02:30:46.884Z,100081.56
2023-01-01T02:34:56.058Z,100079.25
2023-01-01T02:39:03.174Z,100095.16
2023-01-01T02:43:07.065Z,100076.34
2023-01-01T02:47:20.361Z,100077.13
2023-01-01T02:51:32.021Z,100082.06
2023-01-01T02:55:48.959Z,100078.97
2023-01-01T03:00:27.613Z,100081.16
2023-01-01T03:04:41.860Z,100088.28
2023-01-01T03:08:50.991Z,100105.84
2023-01-01T03:12:58.551Z,100114.69
2023-01-01T03:17:06.444Z,100115.28
2023-01-01T03:25:18.092Z,100107.00
2023-01-01T03:29:23.174Z,100110.91
2023-01-01T03:33:33.095Z,100107.00
2023-01-01T03:37:37.667Z,100102.00
2023-01-01T03:41:45.407Z,100120.03
2023-01-01T03:45:51.941Z,100123.91
2023-01-01T03:49:55.111Z,100123.56
2023-01-01T03:54:08.245Z,100114.69
2023-01-01T03:58:18.637Z,100129.97
2023-01-01T04:02:27.505Z,100122.59
2023-01-01T04:06:30.807Z,100121.00
2023-01-01T04:10:38.484Z,100135.78
2023-01-01T04:14:43.132Z,100130.59
2023-01-01T04:18:46.253Z,100133.03
2023-01-01T04:22:49.439Z,100141.47
2023-01-01T04:26:54.707Z,100135.78
2023-01-01T04:35:00.024Z,100141.13
2023-01-01T04:39:03.449Z,100148.22
2023-01-01T04:43:08.246Z,100145.81
2023-01-01T04:47:12.042Z,100152.41
2023-01-01T04:51:17.110Z,100144.38
2023-01-01T04:55:20.610Z,100150.00
2023-01-01T04:59:24.985Z,100132.78
2023-01-01T05:03:28.272Z,100142.81
2023-01-01T05:07:31.321Z,100156.34
2023-01-01T05:11:34.351Z,100155.50
2023-01-01T05:15:39.241Z,100158.69
2023-01-01T05:19:42.286Z,100158.19
2023-01-01T05:23:45.702Z,100163.69
2023-01-01T05:27:48.716Z,100184.59
2023-01-01T05:31:53.324Z,100185.56
2023-01-01T05:35:56.396Z,100190.59
2023-01-01T05:39:59.440Z,100206.13
2023-01-01T05:44:03.030Z,100196.16
2023-01-01T05:48:07.888Z,100204.78
2023-01-01T05:52:10.925Z,100219.16
2023-01-01T05:56:15.501Z,100221.41
2023-01-01T06:00:18.949Z,100241.47
2023-01-01T06:04:23.357Z,100218.66
2023-01-01T06:08:26.451Z,100232.59
2023-01-01T06:12:30.588Z,100237.53
2023-01-01T06:16:33.650Z,100242.88
2023-01-01T06:20:38.171Z,100246.69
2023-01-01T06:24:41.222Z,100255.47
2023-01-01T06:28:45.823Z,100246.22
2023-01-01T06:32:48.839Z,100258.22
2023-01-01T06:36:53.201Z,100268.41
2023-01-01T06:40:57.667Z,100263.72
2023-01-01T06:45:00.784Z,100281.09
2023-01-01T06:49:06.008Z,100283.91
2023-01-01T06:53:10.365Z,100302.38
2023-01-01T06:57:13.404Z,100298.44
2023-01-01T07:01:19.754Z,100317.81
2023-01-01T07:05:23.009Z,100333.16
2023-01-01T07:09:27.339Z,100324.31
2023-01-01T07:13:31.711Z,100362.03
2023-01-01T07:17:35.798Z,100386.50
2023-01-01T07:21:43.522Z,100369.66
2023-01-01T07:25:50.236Z,100364.19
2023-01-01T07:29:53.277Z,100364.88
2023-01-01T07:33:56.448Z,100378.59
2023-01-01T07:37:59.591Z,100385.53
2023-01-01T07:42:10.681Z,100390.44
2023-01-01T07:46:16.389Z,100400.13
2023-01-01T07:50:20.441Z,100412.34
2023-01-01T07:54:23.516Z,100424.56
2023-01-01T07:58:27.910Z,100422.88
2023-01-01T08:02:31.063Z,100434.34
2023-01-01T08:06:34.209Z,100445.34
2023-01-01T08:10:37.457Z,100443.69
2023-01-01T08:14:42.032Z,100442.75
2023-01-01T08:18:45.108Z,100422.06
2023-01-01T08:22:48.138Z,100423.94
2023-01-01T08:26:51.580Z,100434.81
2023-01-01T08:30:56.020Z,100461.78
2023-01-01T08:34:59.169Z,100449.22
2023-01-01T08:39:02.467Z,100459.63
2023-01-01T08:43:05.552Z,100474.94
2023-01-01T08:47:18.586Z,100476.38
2023-01-01T08:51:21.782Z,100505.34
2023-01-01T08:55:24.803Z,100482.25
2023-01-01T08:59:27.829Z,100506.63
2023-01-01T09:03:32.277Z,100512.53
2023-01-01T09:07:35.374Z,100504.28
2023-01-01T09:11:38.520Z,100531.78
2023-01-01T09:15:43.269Z,100540.75
2023-01-01T09:19:47.670Z,100529.97
2023-01-01T09:23:50.819Z,100541.25
2023-01-01T09:27:58.294Z,100531.31
2023-01-01T09:32:01.366Z,100564.34
2023-01-01T09:36:29.426Z,100559.31
2023-01-01T09:40:51.345Z,100553.06
2023-01-01T09:45:03.959Z,100564.81
2023-01-01T09:49:16.028Z,100573.69
2023-01-01T09:53:27.386Z,100573.69
2023-01-01T09:57:32.835Z,100582.53
2023-01-01T10:01:55.813Z,100579.19
2023-01-01T10:06:07.962Z,100573.69
2023-01-01T10:10:23.653Z,100558.84
2023-01-01T10:14:33.965Z,100580.88
2023-01-01T10:18:40.046Z,100575.34
2023-01-01T10:22:48.343Z,100556.69
2023-01-01T10:26:56.138Z,100567.28
2023-01-01T10:31:15.703Z,100566.19
2023-01-01T10:35:25.248Z,100556.47
2023-01-01T10:39:31.518Z,100551.81
2023-01-01T10:43:35.937Z,100549.34
2023-01-01T10:47:39.031Z,100544.31
2023-01-01T10:51:45.916Z,100546.81
2023-01-01T10:55:51.020Z,100556.28
2023-01-01T10:59:55.933Z,100557.00
2023-01-01T11:04:01.181Z,100560.13
2023-01-01T11:08:04.335Z,100565.19
2023-01-01T11:12:30.702Z,100579.78
2023-01-01T11:16:34.586Z,100576.09
2023-01-01T11:20:37.763Z,100565.66
2023-01-01T11:24:40.889Z,100571.03
2023-01-01T11:28:44.138Z,100580.75
2023-01-01T11:32:55.256Z,100598.72
2023-01-01T11:37:11.868Z,100606.72
2023-01-01T11:41:15.015Z,100605.41
2023-01-01T11:45:21.711Z,100605.03
2023-01-01T11:49:29.279Z,100594.88
2023-01-01T11:53:34.292Z,100598.91
2023-01-01T11:57:40.348Z,100573.19
2023-01-01T12:01:47.153Z,100585.16
2023-01-01T12:05:57.562Z,100560.13
2023-01-01T12:10:04.543Z,100563.50
2023-01-01T12:14:18.305Z,100578.34
2023-01-01T12:18:26.920Z,100553.78
2023-01-01T12:22:31.573Z,100551.38
2023-01-01T12:26:53.769Z,100578.56
2023-01-01T12:31:07.904Z,100551.84
2023-01-01T12:35:20.137Z,100552.56
2023-01-01T12:40:02.659Z,100558.69
2023-01-01T12:44:18.015Z,100549.34
2023-01-01T12:48:38.616Z,100553.03
2023-01-01T12:52:54.893Z,100564.19
2023-01-01T12:57:07.739Z,100554.13
2023-01-01T13:01:14.234Z,100548.44
2023-01-01T13:05:21.892Z,100562.97
2023-01-01T13:09:28.753Z,100555.03
2023-01-01T13:13:33.406Z,100572.47
2023-01-01T13:17:36.487Z,100575.44
2023-01-01T13:21:39.557Z,100566.97
2023-01-01T13:25:42.626Z,100567.69
2023-01-01T13:29:48.371Z,100550.56
2023-01-01T13:34:23.967Z,100552.47
2023-01-01T13:38:50.298Z,100555.34
2023-01-01T13:43:06.713Z,100550.66
2023-01-01T13:47:34.848Z,100557.84
2023-01-01T13:52:05.986Z,100547.91
2023-01-01T13:56:26.951Z,100559.84
2023-01-01T14:00:38.514Z,100559.22
2023-01-01T14:04:48.512Z,100542.13
2023-01-01T14:09:02.752Z,100551.44
2023-01-01T14:13:17.631Z,100542.59
2023-01-01T14:17:21.588Z,100554.66
2023-01-01T14:21:29.107Z,100555.13
2023-01-01T14:25:32.352Z,100556.19
2023-01-01T14:29:36.318Z,100554.78
2023-01-01T14:33:39.707Z,100571.03
2023-01-01T14:37:44.525Z,100572.09
2023-01-01T14:41:47.613Z,100579.75
2023-01-01T14:45:52.635Z,100583.97
2023-01-01T14:50:00.662Z,100589.06
2023-01-01T14:54:05.927Z,100584.88
2023-01-01T14:58:13.681Z,100588.47
2023-01-01T15:02:19.667Z,100587.84
2023-01-01T15:06:24.682Z,100591.41
2023-01-01T15:10:32.322Z,100592.03
2023-01-01T15:14:39.616Z,100590.88
2023-01-01T15:18:45.795Z,100596.06
2023-01-01T15:22:49.857Z,100598.13
2023-01-01T15:26:56.425Z,100607.91
2023-01-01T15:31:00.958Z,100591.28
2023-01-01T15:35:07.551Z,100592.56
2023-01-01T15:39:11.646Z,100589.66
2023-01-01T15:43:21.074Z,100604.19
2023-01-01T15:47:26.831Z,100604.75
2023-01-01T15:51:30.561Z,100609.13
2023-01-01T15:55:36.414Z,100615.59
2023-01-01T15:59:45.005Z,100631.75
2023-01-01T16:03:52.137Z,100632.72
2023-01-01T16:08:00.144Z,100639.34
2023-01-01T16:12:03.233Z,100662.00
2023-01-01T16:16:24.646Z,100665.44
2023-01-01T16:20:27.754Z,100666.00
2023-01-01T16:24:30.995Z,100681.16
2023-01-01T16:28:34.089Z,100692.38
2023-01-01T16:32:38.577Z,100692.22
2023-01-01T16:36:41.794Z,100700.69
2023-01-01T16:40:45.380Z,100699.41
2023-01-01T16:44:48.426Z,100691.41
2023-01-01T16:48:52.899Z,100693.94
2023-01-01T16:52:55.955Z,100693.31
2023-01-01T16:56:58.969Z,100680.06
2023-01-01T17:01:02.219Z,100679.63
2023-01-01T17:05:07.369Z,100679.25
2023-01-01T17:09:13.656Z,100668.72
2023-01-01T17:13:16.711Z,100664.91
2023-01-01T17:17:21.940Z,100651.84
2023-01-01T17:21:26.854Z,100657.31
2023-01-01T17:25:29.973Z,100641.31
2023-01-01T17:29:32.973Z,100637.94
2023-01-01T17:33:37.021Z,100633.94
2023-01-01T17:37:41.378Z,100635.00
2023-01-01T17:41:45.464Z,100629.94
2023-01-01T17:45:48.488Z,100624.03
2023-01-01T17:49:51.552Z,100619.00
2023-01-01T17:53:57.118Z,100629.53
2023-01-01T17:58:00.164Z,100624.03
2023-01-01T18:02:06.064Z,100623.66
2023-01-01T18:06:09.745Z,100620.72
2023-01-01T18:10:14.189Z,100611.66
2023-01-01T18:14:21.039Z,100609.34
2023-01-01T18:18:27.558Z,100604.94
2023-01-01T18:22:31.704Z,100597.53
2023-01-01T18:26:36.188Z,100581.34
2023-01-01T18:30:39.656Z,100593.13
2023-01-01T18:34:42.709Z,100586.19
2023-01-01T18:38:48.684Z,100571.44
2023-01-01T18:42:58.673Z,100577.53
2023-01-01T18:47:13.836Z,100568.78
2023-01-01T18:51:22.977Z,100564.56
2023-01-01T18:55:28.175Z,100561.81
2023-01-01T18:59:33.190Z,100558.00
2023-01-01T19:03:41.233Z,100541.78
2023-01-01T19:07:46.751Z,100540.34
2023-01-01T19:11:50.616Z,100523.72
2023-01-01T19:15:58.194Z,100515.28
2023-01-01T19:20:01.405Z,100509.44
2023-01-01T19:24:13.858Z,100500.41
2023-01-01T19:28:36.954Z,100496.38
2023-01-01T19:32:42.348Z,100480.59
2023-01-01T19:36:46.306Z,100466.09
2023-01-01T19:40:49.706Z,100455.72
2023-01-01T19:44:52.811Z,100443.56
2023-01-01T19:48:57.814Z,100438.50
2023-01-01T19:53:00.993Z,100436.59
2023-01-01T19:57:04.081Z,100428.63
2023-01-01T20:01:07.601Z,100406.28
2023-01-01T20:05:12.267Z,100394.50
2023-01-01T20:09:15.354Z,100386.91
2023-01-01T20:13:18.513Z,100385.41
2023-01-01T20:17:21.796Z,100386.81
2023-01-01T20:21:52.110Z,100378.88
2023-01-01T20:25:55.397Z,100370.22
2023-01-01T20:29:58.451Z,100370.81
2023-01-01T20:34:01.522Z,100369.56
2023-01-01T20:38:05.955Z,100360.66
2023-01-01T20:42:09.152Z,100357.28
2023-01-01T20:46:12.243Z,100350.84
2023-01-01T20:50:15.450Z,100341.81
2023-01-01T20:54:20.231Z,100345.00
2023-01-01T20:58:23.272Z,100334.84
2023-01-01T21:02:27.170Z,100335.09
2023-01-01T21:06:30.408Z,100335.53
2023-01-01T21:10:34.885Z,100326.91
2023-01-01T21:14:38.096Z,100321.88
2023-01-01T21:18:42.369Z,100317.25
2023-01-01T21:22:47.857Z,100313.03
2023-01-01T21:26:54.602Z,100315.56
2023-01-01T21:31:00.966Z,100299.13
2023-01-01T21:35:17.030Z,100296.16
2023-01-01T21:39:29.100Z,100294.03
2023-01-01T21:43:42.757Z,100290.22
2023-01-01T21:47:45.961Z,100288.97
2023-01-01T21:51:53.363Z,100284.31
2023-01-01T21:55:58.178Z,100288.28
2023-01-01T22:00:02.835Z,100278.38
2023-01-01T22:04:21.987Z,100282.19
2023-01-01T22:08:26.919Z,100287.63
2023-01-01T22:12:32.576Z,100277.47
2023-01-01T22:16:37.319Z,100271.72
2023-01-01T22:20:43.129Z,100266.84
2023-01-01T22:24:52.941Z,100267.19
2023-01-01T22:28:59.947Z,100262.97
2023-01-01T22:33:10.972Z,100263.72
2023-01-01T22:37:19.275Z,100261.78
2023-01-01T22:41:22.466Z,100243.41
2023-01-01T22:45:25.516Z,100241.22
2023-01-01T22:49:37.060Z,100228.72
2023-01-01T22:53:40.112Z,100224.91
2023-01-01T22:57:43.301Z,100214.47
2023-01-01T23:01:46.458Z,100212.97
2023-01-01T23:05:50.913Z,100211.28
2023-01-01T23:09:54.017Z,100188.19
2023-01-01T23:14:13.910Z,100182.03
2023-01-01T23:18:16.944Z,100162.22
2023-01-01T23:22:21.876Z,100150.25
2023-01-01T23:26:26.014Z,100143.22
2023-01-01T23:30:29.065Z,100146.69
2023-01-01T23:34:32.581Z,100155.53
2023-01-01T23:38:37.718Z,100153.81
2023-01-01T23:42:40.747Z,100146.19
2023-01-01T23:46:44.029Z,100126.44
2023-01-01T23:50:50.515Z,100127.94
2023-01-01T23:54:54.901Z,100132.91
2023-01-01T23:58:58.032Z,100132.47
